sim
Sign-in with your pilot id or email,
or register
Callsign
Passwort

Schedule Details

Flight Number: DLH2521 (3)
Departure: Glasgow International Airport (EGPF) at 16:25
Arrival: Munich Airport (EDDM) at 18:35
Route: Lufthansa Passenger Schedule. Enter filed route here before submitting Pirep.

Weather Information
Getting current METAR information for EGPF 221620Z AUTO 21021KT 4000 -RA BKN024 BKN031 OVC042 14/12 Q0998
Getting current METAR information for EDDM 221620Z VRB02KT 9999 FEW040CB 22/14 Q1010 NOSIG

Schedule Frequency

Route Map